Time;durP1;ratioP1;P1;durP2;ratioP2;P2;SDS_P1;SDS_P2;PMS_P1;PMS_P2;Temp;Humidity;BMP_temperature;BMP_pressure;BME280_temperature;BME280_humidity;BME280_pressure;Samples;Min_cycle;Max_cycle;Signal;HPM_P1;HPM_P2
2021/11/03 00:02:28;;;;;;;17.65;12.73;;;6.00;99.90;;;;;;4982664;28;20073;-93
2021/11/03 00:05:01;;;;;;;24.40;17.38;;;6.00;99.90;;;;;;4992895;28;20047;-92
2021/11/03 00:07:36;;;;;;;26.83;19.43;;;5.90;99.90;;;;;;4992486;28;20047;-92
2021/11/03 00:10:15;;;;;;;25.38;18.17;;;5.90;99.90;;;;;;4992622;28;20308;-93
2021/11/03 00:13:12;;;;;;;23.83;18.17;;;5.90;99.90;;;;;;4992818;28;20078;-92
2021/11/03 00:15:52;;;;;;;20.40;15.70;;;5.90;99.90;;;;;;4976251;28;20038;-92
2021/11/03 00:18:29;;;;;;;22.27;15.27;;;5.90;99.90;;;;;;4976656;28;20038;-92
2021/11/03 00:21:02;;;;;;;19.30;14.65;;;5.90;99.90;;;;;;4975928;28;20034;-91
2021/11/03 00:23:36;;;;;;;16.93;13.27;;;5.80;99.90;;;;;;4975918;28;20219;-92
2021/11/03 00:26:03;;;;;;;18.80;13.30;;;5.80;99.90;;;;;;5028678;28;20619;-92
2021/11/03 00:28:30;;;;;;;18.02;13.63;;;5.80;99.90;;;;;;5018256;28;20042;-92
2021/11/03 00:30:58;;;;;;;18.55;13.93;;;5.70;99.90;;;;;;5035118;28;20037;-93
2021/11/03 00:33:39;;;;;;;18.17;13.85;;;5.70;99.90;;;;;;5034496;28;20101;-93
2021/11/03 00:36:09;;;;;;;17.73;13.20;;;5.70;99.90;;;;;;5018303;28;20038;-93
2021/11/03 00:38:38;;;;;;;18.02;13.77;;;5.60;99.90;;;;;;5018336;28;20045;-93
2021/11/03 00:41:07;;;;;;;18.63;13.68;;;5.60;99.90;;;;;;5018507;28;20052;-93
2021/11/03 00:43:40;;;;;;;16.83;11.80;;;5.60;99.90;;;;;;5002447;28;20046;-93
2021/11/03 00:46:12;;;;;;;15.77;12.30;;;5.50;99.90;;;;;;5017829;28;20420;-94
2021/11/03 00:48:39;;;;;;;16.00;12.52;;;5.50;99.90;;;;;;5018292;28;20129;-92
2021/11/03 00:51:11;;;;;;;16.98;12.20;;;5.50;99.90;;;;;;5034715;28;20470;-93
2021/11/03 00:53:39;;;;;;;15.90;12.20;;;5.40;99.90;;;;;;4982425;28;20140;-93
2021/11/03 00:56:11;;;;;;;14.73;11.10;;;5.30;99.90;;;;;;4998674;28;20125;-93
2021/11/03 00:58:44;;;;;;;17.33;13.45;;;5.30;99.90;;;;;;4982612;28;20080;-93
2021/11/03 01:01:13;;;;;;;16.60;12.32;;;5.30;99.90;;;;;;4999689;28;20041;-94
2021/11/03 01:03:42;;;;;;;18.52;13.80;;;5.20;99.90;;;;;;5002444;28;20049;-93
2021/11/03 01:06:11;;;;;;;16.20;11.38;;;5.20;99.90;;;;;;5058496;28;20028;-93
2021/11/03 01:08:41;;;;;;;16.48;12.07;;;5.10;99.90;;;;;;5055402;28;20071;-93
2021/11/03 01:11:13;;;;;;;19.00;12.70;;;5.10;99.90;;;;;;5069961;28;20032;-93
2021/11/03 01:13:46;;;;;;;16.77;11.35;;;5.10;99.90;;;;;;5084060;28;20063;-93
2021/11/03 01:16:15;;;;;;;17.58;12.02;;;5.10;99.90;;;;;;5078628;28;20063;-94
2021/11/03 01:18:43;;;;;;;19.08;11.98;;;5.10;99.90;;;;;;5079043;28;20503;-93
2021/11/03 01:21:11;;;;;;;17.38;11.50;;;5.00;99.90;;;;;;5057927;28;20048;-94
2021/11/03 01:23:39;;;;;;;15.95;12.18;;;5.00;99.90;;;;;;5078276;28;20073;-93
2021/11/03 01:26:15;;;;;;;16.35;11.85;;;4.90;99.90;;;;;;5059038;28;20095;-93
2021/11/03 01:28:43;;;;;;;16.77;12.13;;;4.90;99.90;;;;;;5076446;28;20024;-94
2021/11/03 01:31:14;;;;;;;16.55;11.85;;;4.80;99.90;;;;;;5077647;28;20434;-93
2021/11/03 01:33:44;;;;;;;14.27;10.88;;;4.80;99.90;;;;;;5058438;28;20040;-92
2021/11/03 01:36:12;;;;;;;17.13;11.98;;;4.90;99.90;;;;;;5058178;28;20538;-93
2021/11/03 01:38:41;;;;;;;16.08;12.10;;;4.90;99.90;;;;;;5070432;28;20051;-92
2021/11/03 01:41:10;;;;;;;19.58;11.63;;;4.80;99.90;;;;;;5076733;28;20040;-93
2021/11/03 01:43:39;;;;;;;19.45;12.35;;;4.80;99.90;;;;;;5089068;28;20044;-92
2021/11/03 01:46:36;;;;;;;16.17;10.85;;;4.80;99.90;;;;;;5093153;28;20514;-92
2021/11/03 01:49:18;;;;;;;15.77;11.77;;;4.80;99.90;;;;;;5095779;28;20032;-93
2021/11/03 01:52:08;;;;;;;17.67;11.77;;;4.80;99.90;;;;;;5069604;28;20032;-93
2021/11/03 01:54:43;;;;;;;17.30;11.48;;;4.80;99.90;;;;;;5076959;28;20032;-93
2021/11/03 01:57:14;;;;;;;14.88;11.27;;;4.70;99.90;;;;;;5073294;28;20116;-93
2021/11/03 01:59:45;;;;;;;16.67;12.40;;;4.70;99.90;;;;;;5077045;28;20039;-93
2021/11/03 02:02:21;;;;;;;16.05;11.35;;;4.70;99.90;;;;;;5055762;28;20047;-92
2021/11/03 02:04:50;;;;;;;15.63;10.85;;;4.60;99.90;;;;;;5094819;28;20032;-93
2021/11/03 02:07:28;;;;;;;25.42;12.07;;;4.70;99.90;;;;;;5077634;28;20032;-92
2021/11/03 02:09:56;;;;;;;19.98;12.13;;;4.70;99.90;;;;;;5066574;28;20048;-93
2021/11/03 02:12:32;;;;;;;23.20;11.70;;;4.60;99.90;;;;;;5057617;28;20472;-92
2021/11/03 02:15:02;;;;;;;19.80;10.80;;;4.70;99.90;;;;;;5056594;28;20480;-93
2021/11/03 02:17:30;;;;;;;15.77;10.80;;;4.70;99.90;;;;;;5056404;28;20024;-93
2021/11/03 02:20:00;;;;;;;18.80;10.57;;;4.70;99.90;;;;;;5057403;28;20056;-93
2021/11/03 02:23:03;;;;;;;21.25;11.63;;;4.60;99.90;;;;;;5074725;28;20038;-93
2021/11/03 02:25:45;;;;;;;23.80;10.88;;;4.60;99.90;;;;;;5057023;28;20028;-93
2021/11/03 02:28:16;;;;;;;18.27;11.10;;;4.60;99.90;;;;;;5056198;28;20040;-93
2021/11/03 02:30:49;;;;;;;13.70;9.48;;;4.60;99.90;;;;;;5057328;28;20040;-93
2021/11/03 02:33:21;;;;;;;13.70;9.18;;;4.60;99.90;;;;;;5057058;28;20029;-93
2021/11/03 02:36:03;;;;;;;21.17;10.38;;;4.60;99.90;;;;;;5056258;28;20075;-93
2021/11/03 02:38:41;;;;;;;17.55;10.45;;;4.60;99.90;;;;;;5050553;28;20037;-93
2021/11/03 02:41:37;;;;;;;12.68;10.68;;;4.60;99.90;;;;;;5074100;28;20116;-94
2021/11/03 02:44:15;;;;;;;13.98;9.88;;;4.50;99.90;;;;;;5064733;28;20064;-93
2021/11/03 02:46:43;;;;;;;13.43;9.77;;;4.50;99.90;;;;;;5040032;28;20040;-93
2021/11/03 02:49:20;;;;;;;15.38;10.48;;;4.50;99.90;;;;;;5055625;28;20036;-93
2021/11/03 02:51:59;;;;;;;17.20;9.43;;;4.50;99.90;;;;;;5054009;28;20120;-93
2021/11/03 02:54:29;;;;;;;21.38;10.93;;;4.50;99.90;;;;;;5036602;28;20048;-92
2021/11/03 02:57:18;;;;;;;19.42;11.48;;;4.40;99.90;;;;;;5069611;28;20044;-94
2021/11/03 03:00:10;;;;;;;15.93;11.52;;;4.40;99.90;;;;;;5057478;28;20484;-93
2021/11/03 03:02:38;;;;;;;14.05;10.23;;;4.40;99.90;;;;;;5055999;28;20051;-93
2021/11/03 03:05:09;;;;;;;14.18;10.68;;;4.40;99.90;;;;;;5055538;28;20165;-92
2021/11/03 03:07:49;;;;;;;22.85;11.15;;;4.40;99.90;;;;;;5055429;28;20024;-94
2021/11/03 03:10:29;;;;;;;20.20;12.35;;;4.40;99.90;;;;;;5058291;28;20127;-93
2021/11/03 03:13:24;;;;;;;16.17;12.85;;;4.40;99.90;;;;;;5055501;28;20040;-93
2021/11/03 03:16:13;;;;;;;20.17;13.27;;;4.40;99.90;;;;;;5041022;28;20025;-93
2021/11/03 03:18:40;;;;;;;17.23;11.65;;;4.40;99.90;;;;;;5055555;28;20032;-93
2021/11/03 03:21:11;;;;;;;23.42;11.50;;;4.40;99.90;;;;;;5056205;28;20040;-94
2021/11/03 03:23:44;;;;;;;19.02;11.85;;;4.40;99.90;;;;;;5039967;28;20090;-93
2021/11/03 03:26:24;;;;;;;21.80;12.32;;;4.50;99.90;;;;;;5056236;28;20032;-92
2021/11/03 03:28:55;;;;;;;16.90;12.85;;;4.50;99.90;;;;;;5046133;28;20037;-93
2021/11/03 03:31:24;;;;;;;26.98;12.23;;;4.60;99.90;;;;;;5056527;28;20040;-93
2021/11/03 03:33:56;;;;;;;14.05;11.60;;;4.60;99.90;;;;;;5056961;28;20052;-94
2021/11/03 03:36:40;;;;;;;17.65;12.10;;;4.60;99.90;;;;;;5056208;28;20068;-93
2021/11/03 03:39:18;;;;;;;18.25;10.98;;;4.60;99.90;;;;;;5039686;28;20143;-94
2021/11/03 03:41:50;;;;;;;15.15;10.05;;;4.60;99.90;;;;;;5036012;28;20196;-93
2021/11/03 03:44:22;;;;;;;16.50;10.27;;;4.60;99.90;;;;;;5045863;28;20107;-94
2021/11/03 03:47:04;;;;;;;20.05;11.70;;;4.70;99.90;;;;;;5073761;28;20474;-94
2021/11/03 03:49:36;;;;;;;16.00;10.90;;;4.70;99.90;;;;;;5039251;28;20040;-93
2021/11/03 03:52:07;;;;;;;25.45;12.05;;;4.70;99.90;;;;;;5056116;28;20032;-93
2021/11/03 03:54:42;;;;;;;21.42;12.80;;;4.70;99.90;;;;;;5072659;28;20033;-93
2021/11/03 03:57:17;;;;;;;19.35;13.85;;;4.70;99.90;;;;;;5039829;28;20416;-93
2021/11/03 04:00:04;;;;;;;22.60;13.10;;;4.70;99.90;;;;;;5052595;28;20052;-93
2021/11/03 04:02:32;;;;;;;20.23;12.27;;;4.70;99.90;;;;;;5048003;28;20094;-93
2021/11/03 04:05:22;;;;;;;19.70;12.43;;;4.70;99.90;;;;;;5023172;28;20045;-93
2021/11/03 04:07:54;;;;;;;19.92;11.25;;;4.70;99.90;;;;;;5063529;28;20109;-94
2021/11/03 04:10:33;;;;;;;26.30;11.40;;;4.70;99.90;;;;;;5042128;28;20057;-93
2021/11/03 04:13:26;;;;;;;16.83;10.82;;;4.80;99.90;;;;;;5093107;28;20050;-94
2021/11/03 04:16:13;;;;;;;27.70;11.48;;;4.80;99.90;;;;;;5083309;28;20460;-94
2021/11/03 04:18:46;;;;;;;18.02;10.95;;;4.80;99.90;;;;;;5070340;28;20048;-93
2021/11/03 04:21:13;;;;;;;;;;;4.80;99.90;;;;;;5065477;28;20083;-93
2021/11/03 04:23:50;;;;;;;19.83;10.60;;;4.70;99.90;;;;;;5081195;28;19919;-93
2021/11/03 04:26:36;;;;;;;18.38;10.38;;;4.70;99.90;;;;;;5063267;28;20046;-93
2021/11/03 04:29:19;;;;;;;14.18;10.10;;;4.80;99.90;;;;;;5062907;28;20043;-93
2021/11/03 04:31:48;;;;;;;18.63;9.68;;;4.70;99.90;;;;;;5080665;28;20460;-93
2021/11/03 04:34:20;;;;;;;14.00;9.55;;;4.70;99.90;;;;;;5079345;28;20045;-93
2021/11/03 04:37:07;;;;;;;13.48;9.90;;;4.70;99.90;;;;;;5081601;28;20066;-93
2021/11/03 04:39:35;;;;;;;13.65;9.60;;;4.70;99.90;;;;;;5081904;28;20426;-93
2021/11/03 04:42:04;;;;;;;15.48;9.60;;;4.70;99.90;;;;;;5062260;28;20036;-93
2021/11/03 04:44:32;;;;;;;21.20;10.85;;;4.70;99.90;;;;;;5062565;28;20055;-93
2021/11/03 04:46:59;;;;;;;14.20;9.23;;;4.70;99.90;;;;;;5045957;28;20388;-93
2021/11/03 04:49:33;;;;;;;15.38;10.20;;;4.70;99.90;;;;;;5061451;28;20078;-93
2021/11/03 04:52:08;;;;;;;17.52;10.82;;;4.70;99.90;;;;;;5078957;28;20036;-92
2021/11/03 04:54:34;;;;;;;12.75;11.18;;;4.70;99.90;;;;;;5043813;28;20064;-94
2021/11/03 04:57:03;;;;;;;14.48;11.65;;;4.70;99.90;;;;;;5062195;28;20100;-92
2021/11/03 04:59:33;;;;;;;13.98;10.45;;;4.70;99.90;;;;;;5078290;28;20032;-92
2021/11/03 05:02:00;;;;;;;13.48;10.93;;;4.70;99.90;;;;;;5078848;28;20047;-93
2021/11/03 05:04:28;;;;;;;15.52;10.82;;;4.80;99.90;;;;;;5061593;28;20153;-93
2021/11/03 05:07:16;;;;;;;29.17;12.18;;;4.80;99.90;;;;;;5077800;28;20028;-93
2021/11/03 05:09:57;;;;;;;20.42;12.25;;;4.80;99.90;;;;;;5062354;28;20036;-93
2021/11/03 05:12:28;;;;;;;27.02;11.77;;;4.80;99.90;;;;;;5058871;28;20102;-92
2021/11/03 05:15:04;;;;;;;38.15;14.25;;;4.80;99.90;;;;;;5052355;28;20037;-93
2021/11/03 05:17:33;;;;;;;31.35;13.95;;;4.70;99.90;;;;;;5058058;28;20037;-93
2021/11/03 05:20:08;;;;;;;30.48;14.40;;;4.70;99.90;;;;;;5057712;28;20036;-93
2021/11/03 05:22:35;;;;;;;41.95;14.82;;;4.60;99.90;;;;;;5054636;28;20077;-92
2021/11/03 05:25:07;;;;;;;24.27;13.85;;;4.60;99.90;;;;;;5057639;28;20049;-93
2021/11/03 05:27:42;;;;;;;26.40;12.48;;;4.60;99.90;;;;;;5057418;28;20028;-93
2021/11/03 05:30:14;;;;;;;26.13;12.80;;;4.60;99.90;;;;;;5054477;28;20075;-93
2021/11/03 05:32:42;;;;;;;27.53;12.33;;;4.60;99.90;;;;;;5057288;28;20480;-93
2021/11/03 05:35:20;;;;;;;20.17;12.23;;;4.60;99.90;;;;;;5053769;28;20259;-94
2021/11/03 05:38:01;;;;;;;31.85;11.80;;;4.70;99.90;;;;;;5040934;28;20128;-94
2021/11/03 05:40:37;;;;;;;18.33;11.80;;;4.70;99.90;;;;;;5039719;28;20044;-94
2021/11/03 05:43:13;;;;;;;31.20;11.63;;;4.80;99.90;;;;;;5055977;28;20040;-93
2021/11/03 05:45:44;;;;;;;24.63;12.13;;;4.80;99.90;;;;;;5037107;28;20120;-94
2021/11/03 05:48:12;;;;;;;22.65;11.27;;;4.80;99.90;;;;;;5052817;28;20045;-94
2021/11/03 05:50:40;;;;;;;41.72;13.32;;;4.80;99.90;;;;;;5047234;28;20064;-93
2021/11/03 05:53:10;;;;;;;26.70;12.13;;;4.70;99.90;;;;;;5073049;28;20495;-93
2021/11/03 05:55:45;;;;;;;21.60;12.15;;;4.70;99.90;;;;;;5022193;28;20372;-93
2021/11/03 05:58:33;;;;;;;23.17;11.35;;;4.70;99.90;;;;;;5055005;28;20082;-93
2021/11/03 06:01:05;;;;;;;20.83;10.65;;;4.70;99.90;;;;;;5073311;28;20047;-93
2021/11/03 06:03:35;;;;;;;17.05;10.82;;;4.70;99.90;;;;;;5055378;28;20036;-93
2021/11/03 06:06:44;;;;;;;27.75;10.77;;;4.70;99.90;;;;;;5038983;28;20433;-93
2021/11/03 06:09:22;;;;;;;21.95;10.88;;;4.80;99.90;;;;;;5054078;28;20041;-92
2021/11/03 06:11:52;;;;;;;27.13;11.02;;;4.80;99.90;;;;;;5040274;28;20422;-93
2021/11/03 06:14:21;;;;;;;22.13;10.93;;;4.80;99.90;;;;;;5072984;28;20035;-93
2021/11/03 06:16:48;;;;;;;18.63;11.13;;;4.80;99.90;;;;;;5056279;28;20037;-93
2021/11/03 06:19:17;;;;;;;26.38;12.30;;;4.70;99.90;;;;;;5053054;28;20141;-92
2021/11/03 06:21:44;;;;;;;15.77;11.38;;;4.80;99.90;;;;;;5055010;28;20128;-93
2021/11/03 06:24:28;;;;;;;20.33;11.10;;;4.80;99.90;;;;;;5054556;28;20040;-93
2021/11/03 06:26:59;;;;;;;35.35;13.43;;;4.80;99.90;;;;;;5052925;28;20526;-92
2021/11/03 06:30:17;;;;;;;19.35;12.38;;;4.70;99.90;;;;;;5054787;28;20040;-93
2021/11/03 06:36:47;;;;;;;14.55;11.18;;;4.70;99.90;;;;;;4902732;29;20183;-93
2021/11/03 06:39:36;;;;;;;17.90;11.32;;;4.70;99.90;;;;;;4879778;29;20036;-93
2021/11/03 06:42:11;;;;;;;23.73;10.80;;;4.70;99.90;;;;;;4891487;29;20532;-93
2021/11/03 06:44:54;;;;;;;16.98;11.13;;;4.70;99.90;;;;;;4890276;29;20161;-93
2021/11/03 06:47:22;;;;;;;20.38;10.80;;;4.70;99.90;;;;;;4862861;29;20037;-93
2021/11/03 06:49:49;;;;;;;15.50;10.23;;;4.80;99.90;;;;;;4885667;29;20044;-92
2021/11/03 06:52:15;;;;;;;22.40;9.90;;;4.80;99.90;;;;;;4929080;28;20491;-93
2021/11/03 06:54:54;;;;;;;15.73;9.98;;;4.80;99.90;;;;;;5048197;28;20040;-93
2021/11/03 06:57:29;;;;;;;16.63;10.43;;;4.80;99.90;;;;;;5038751;28;20044;-93
2021/11/03 07:00:22;;;;;;;14.82;10.57;;;4.80;99.90;;;;;;5054177;28;20040;-92
2021/11/03 07:02:54;;;;;;;12.10;9.27;;;4.80;99.90;;;;;;5055221;28;20036;-94
2021/11/03 07:05:36;;;;;;;22.38;12.35;;;4.80;99.90;;;;;;5036782;28;20041;-93
2021/11/03 07:08:05;;;;;;;17.83;11.88;;;4.80;99.90;;;;;;5055837;28;20485;-93
2021/11/03 07:10:40;;;;;;;20.80;12.25;;;4.70;99.90;;;;;;5060662;28;20085;-93
2021/11/03 07:13:12;;;;;;;14.30;11.13;;;4.80;99.90;;;;;;5076329;28;20039;-93
2021/11/03 07:15:48;;;;;;;21.58;11.68;;;4.80;99.90;;;;;;5059862;28;20036;-93
2021/11/03 07:18:18;;;;;;;16.42;11.93;;;4.80;99.90;;;;;;5093959;28;20495;-94
2021/11/03 07:21:03;;;;;;;17.98;12.68;;;4.80;99.90;;;;;;5062977;28;20047;-93
2021/11/03 07:23:41;;;;;;;17.73;11.52;;;4.80;99.90;;;;;;5052101;28;20048;-93
2021/11/03 07:26:14;;;;;;;19.63;11.68;;;4.90;99.90;;;;;;5076301;28;20032;-94
2021/11/03 07:28:56;;;;;;;17.07;12.10;;;4.90;99.90;;;;;;5077040;28;20042;-92
2021/11/03 07:31:27;;;;;;;18.75;12.48;;;5.00;99.90;;;;;;5042584;28;20544;-93
2021/11/03 07:33:56;;;;;;;16.58;12.48;;;5.00;99.90;;;;;;5053507;28;20503;-93
2021/11/03 07:36:25;;;;;;;18.92;13.52;;;5.10;99.90;;;;;;5065919;28;20028;-93
2021/11/03 07:38:58;;;;;;;19.10;13.30;;;5.10;99.90;;;;;;5080626;28;20127;-93
2021/11/03 07:41:33;;;;;;;23.25;12.98;;;5.00;99.90;;;;;;5065295;28;20036;-93
2021/11/03 07:44:04;;;;;;;22.27;14.57;;;5.10;99.90;;;;;;5096624;28;20081;-93
2021/11/03 07:46:33;;;;;;;17.77;13.23;;;5.10;99.90;;;;;;5079342;28;20384;-93
2021/11/03 07:49:21;;;;;;;18.85;13.90;;;5.20;99.90;;;;;;5065279;28;20037;-95
2021/11/03 07:51:58;;;;;;;20.55;14.45;;;5.20;99.90;;;;;;5058183;28;20043;-93
2021/11/03 07:54:30;;;;;;;21.10;15.27;;;5.30;99.90;;;;;;5070101;28;20040;-93
2021/11/03 07:57:02;;;;;;;26.15;15.75;;;5.30;99.90;;;;;;5079642;28;20032;-93
2021/11/03 07:59:31;;;;;;;23.95;15.77;;;5.30;99.90;;;;;;5097129;28;20040;-93
2021/11/03 08:02:00;;;;;;;19.25;14.60;;;5.40;99.90;;;;;;5098630;28;20032;-92
2021/11/03 08:04:35;;;;;;;25.02;15.35;;;5.40;99.90;;;;;;5080898;28;20059;-93
2021/11/03 08:07:29;;;;;;;21.17;16.00;;;5.50;99.90;;;;;;5064586;28;20167;-93
2021/11/03 08:09:58;;;;;;;23.63;15.35;;;5.60;99.90;;;;;;5065784;28;20036;-93
2021/11/03 08:12:29;;;;;;;23.67;15.75;;;5.70;99.90;;;;;;5079656;28;20075;-93
2021/11/03 08:14:58;;;;;;;22.10;15.65;;;5.70;99.90;;;;;;5049015;28;20037;-92
2021/11/03 08:17:35;;;;;;;23.67;17.27;;;5.80;99.90;;;;;;5041463;28;20040;-93
2021/11/03 08:20:12;;;;;;;21.83;16.08;;;5.80;99.90;;;;;;5049872;28;20056;-93
2021/11/03 08:23:00;;;;;;;;;;;;;;;;;;;;;
2021/11/03 08:25:31;;;;;;;31.40;17.20;;;5.90;99.90;;;;;;5065197;28;20054;-93
2021/11/03 08:28:04;;;;;;;27.95;17.15;;;6.00;99.90;;;;;;5047093;28;20040;-93
2021/11/03 08:30:31;;;;;;;26.92;18.10;;;6.00;99.90;;;;;;5079437;28;20051;-93
2021/11/03 08:33:10;;;;;;;31.55;17.77;;;6.00;99.90;;;;;;5064410;28;20029;-93
2021/11/03 08:35:49;;;;;;;26.98;17.23;;;6.00;99.90;;;;;;5062665;28;20111;-93
2021/11/03 08:38:25;;;;;;;21.88;16.40;;;6.10;99.90;;;;;;5070360;28;20428;-92
2021/11/03 08:40:52;;;;;;;22.63;16.00;;;6.20;99.90;;;;;;5055925;28;20139;-92
2021/11/03 08:43:45;;;;;;;26.95;16.08;;;6.20;99.90;;;;;;5062322;28;20032;-92
2021/11/03 08:46:17;;;;;;;24.20;16.13;;;6.30;99.90;;;;;;5070411;28;20036;-92
2021/11/03 08:49:03;;;;;;;23.75;16.60;;;6.30;99.90;;;;;;5055113;28;20040;-92
2021/11/03 08:51:56;;;;;;;27.63;16.25;;;6.40;99.90;;;;;;5062128;28;20439;-92
2021/11/03 08:54:23;;;;;;;36.17;17.75;;;6.50;99.90;;;;;;5068714;28;20106;-93
2021/11/03 08:56:53;;;;;;;29.55;16.80;;;6.50;99.90;;;;;;5089900;28;20480;-91
2021/11/03 08:59:33;;;;;;;42.75;19.00;;;6.50;99.90;;;;;;5043237;28;20041;-91
2021/11/03 09:02:24;;;;;;;40.03;16.67;;;6.50;99.90;;;;;;5065006;28;20040;-92
2021/11/03 09:05:04;;;;;;;37.97;17.85;;;6.50;99.90;;;;;;5064815;28;20472;-93
2021/11/03 09:07:39;;;;;;;27.92;17.80;;;6.60;99.90;;;;;;5060905;28;20040;-92
2021/11/03 09:10:11;;;;;;;28.27;17.95;;;6.60;99.90;;;;;;5099729;28;20032;-91
2021/11/03 09:12:45;;;;;;;30.05;18.60;;;6.60;99.90;;;;;;5063594;28;20048;-91
2021/11/03 09:15:18;;;;;;;28.63;18.73;;;6.60;99.90;;;;;;5052506;28;20103;-92
2021/11/03 09:17:50;;;;;;;24.40;18.50;;;6.70;99.90;;;;;;5073133;28;20039;-94
2021/11/03 09:20:45;;;;;;;28.30;18.83;;;6.70;99.90;;;;;;5043787;28;20484;-93
2021/11/03 09:23:22;;;;;;;28.55;19.67;;;6.80;99.90;;;;;;5075834;28;20083;-92
2021/11/03 09:25:58;;;;;;;25.10;17.77;;;6.80;99.90;;;;;;5075753;28;20123;-92
2021/11/03 09:28:34;;;;;;;22.88;17.73;;;6.90;99.90;;;;;;5080781;28;20035;-92
2021/11/03 09:31:11;;;;;;;23.33;17.27;;;6.90;99.90;;;;;;5062027;28;20044;-92
2021/11/03 09:33:59;;;;;;;24.23;17.05;;;7.00;99.90;;;;;;5066485;28;20028;-93
2021/11/03 09:36:34;;;;;;;26.73;18.17;;;7.10;99.90;;;;;;5079180;28;20036;-93
2021/11/03 09:39:03;;;;;;;24.75;17.00;;;7.20;99.90;;;;;;5094766;28;20391;-92
2021/11/03 09:41:49;;;;;;;23.95;18.23;;;7.20;99.90;;;;;;5063084;28;20040;-92
2021/11/03 09:44:41;;;;;;;25.10;18.60;;;7.30;99.90;;;;;;5096447;28;20035;-93
2021/11/03 09:47:37;;;;;;;25.92;19.55;;;7.40;99.90;;;;;;5078557;28;20472;-93
2021/11/03 09:50:33;;;;;;;;;;;;;;;;;;;;;
2021/11/03 09:53:28;;;;;;;25.17;18.50;;;7.40;99.90;;;;;;5091102;28;20127;-93
2021/11/03 09:55:56;;;;;;;25.13;19.05;;;7.50;99.90;;;;;;5059747;28;20135;-92
2021/11/03 09:59:21;;;;;;;30.38;21.65;;;7.50;99.90;;;;;;5068731;28;20040;-93
2021/11/03 10:02:40;;;;;;;29.77;20.75;;;7.60;99.90;;;;;;5065677;28;20040;-92
2021/11/03 10:05:43;;;;;;;30.02;20.48;;;7.50;99.90;;;;;;5043434;28;20115;-92
2021/11/03 10:08:19;;;;;;;35.85;24.08;;;7.50;99.90;;;;;;5085886;28;20043;-93
2021/11/03 10:10:58;;;;;;;32.70;22.13;;;7.60;99.90;;;;;;5059316;28;20549;-92
2021/11/03 10:13:37;;;;;;;33.15;23.63;;;7.60;99.90;;;;;;5076750;28;20024;-92
2021/11/03 10:17:05;;;;;;;;;;;;;;;;;;;;;
2021/11/03 10:19:36;;;;;;;33.03;23.67;;;7.80;99.90;;;;;;5002668;28;20039;-93
2021/11/03 10:22:23;;;;;;;31.67;22.08;;;7.90;99.90;;;;;;5074286;28;20079;-93
2021/11/03 10:25:21;;;;;;;30.38;22.13;;;7.90;99.90;;;;;;5077208;28;20064;-93
2021/11/03 10:27:56;;;;;;;29.52;21.13;;;8.00;99.90;;;;;;5065240;28;20067;-92
2021/11/03 10:30:58;;;;;;;28.58;21.17;;;8.10;99.90;;;;;;5065626;28;20081;-92
2021/11/03 10:34:21;;;;;;;29.90;23.02;;;8.30;99.90;;;;;;5075815;28;20050;-93
2021/11/03 10:37:19;;;;;;;27.40;19.88;;;8.40;99.90;;;;;;5058307;28;20096;-92
2021/11/03 10:39:51;;;;;;;25.48;18.35;;;8.60;99.90;;;;;;5010974;28;20045;-92
2021/11/03 10:42:41;;;;;;;27.30;20.13;;;8.70;99.90;;;;;;5094511;28;20036;-92
2021/11/03 10:45:59;;;;;;;;;;;;;;;;;;;;;
2021/11/03 10:48:30;;;;;;;23.77;17.38;;;8.80;99.90;;;;;;5028416;28;20119;-93
2021/11/03 10:51:24;;;;;;;24.52;18.05;;;8.90;99.90;;;;;;5050980;28;20040;-93
2021/11/03 10:54:07;;;;;;;27.27;20.20;;;9.00;99.90;;;;;;5051907;28;20053;-94
2021/11/03 10:56:48;;;;;;;24.77;18.38;;;9.10;99.90;;;;;;5056773;28;20077;-93
2021/11/03 10:59:17;;;;;;;22.75;17.70;;;9.20;99.90;;;;;;5059396;28;20504;-93
2021/11/03 11:02:06;;;;;;;;;;;;;;;;;;;;;
2021/11/03 11:04:37;;;;;;;23.38;17.67;;;9.40;99.90;;;;;;5089180;28;20506;-91
2021/11/03 11:07:18;;;;;;;22.52;16.55;;;9.50;99.90;;;;;;5076700;28;20040;-91
2021/11/03 11:10:18;;;;;;;21.67;16.75;;;9.60;99.90;;;;;;5060386;28;20046;-91
2021/11/03 11:12:49;;;;;;;22.65;17.17;;;9.70;99.90;;;;;;5075822;28;20055;-92
2021/11/03 11:15:37;;;;;;;25.17;18.67;;;9.80;99.90;;;;;;5055003;28;20032;-92
2021/11/03 11:18:41;;;;;;;25.83;19.08;;;9.90;99.90;;;;;;5072083;28;20089;-93
2021/11/03 11:21:36;;;;;;;28.40;22.50;;;10.00;99.90;;;;;;5070141;28;20047;-92
2021/11/03 11:24:45;;;;;;;24.88;19.23;;;10.00;99.90;;;;;;5066985;28;20055;-90
2021/11/03 11:27:48;;;;;;;25.52;19.00;;;10.00;99.90;;;;;;5060154;28;20170;-90
2021/11/03 11:30:37;;;;;;;;;;;10.00;99.90;;;;;;5086148;28;20024;-90
2021/11/03 11:33:36;;;;;;;21.65;16.73;;;10.10;99.90;;;;;;5074605;28;19900;-91
2021/11/03 11:36:32;;;;;;;25.70;18.40;;;10.20;99.90;;;;;;5056502;28;20036;-91
2021/11/03 11:39:43;;;;;;;23.05;17.30;;;10.30;99.90;;;;;;5092811;28;20494;-92
2021/11/03 11:42:19;;;;;;;21.17;16.40;;;10.40;99.90;;;;;;5069455;28;20036;-91
2021/11/03 11:45:01;;;;;;;21.05;17.17;;;10.40;99.90;;;;;;5084999;28;20472;-93
2021/11/03 11:47:35;;;;;;;;;;;10.40;99.90;;;;;;5106329;28;20035;-92
2021/11/03 11:50:32;;;;;;;19.30;15.00;;;10.40;99.90;;;;;;5073291;28;19912;-91
2021/11/03 11:53:32;;;;;;;19.80;16.13;;;10.40;99.90;;;;;;5073455;28;20480;-93
2021/11/03 11:56:24;;;;;;;23.50;18.27;;;10.50;99.90;;;;;;5055790;28;20131;-92
2021/11/03 11:59:20;;;;;;;23.13;18.65;;;10.50;99.90;;;;;;5067356;28;20044;-91
2021/11/03 12:01:54;;;;;;;22.65;19.23;;;10.50;99.90;;;;;;5066625;28;20036;-92
2021/11/03 12:05:05;;;;;;;28.75;22.73;;;10.50;99.90;;;;;;5069060;28;20198;-92
2021/11/03 12:07:44;;;;;;;22.98;19.55;;;10.50;99.90;;;;;;5079312;28;20046;-92
2021/11/03 12:11:13;;;;;;;24.90;19.73;;;10.40;99.90;;;;;;5082346;28;20039;-93
2021/11/03 12:14:02;;;;;;;21.38;17.92;;;10.40;99.90;;;;;;4994301;28;20046;-93
2021/11/03 12:17:09;;;;;;;26.17;20.38;;;10.40;99.90;;;;;;4990888;28;20031;-92
2021/11/03 12:20:00;;;;;;;23.05;18.40;;;10.40;99.90;;;;;;4937639;29;20039;-91
2021/11/03 12:22:51;;;;;;;22.58;17.85;;;10.40;99.90;;;;;;5067716;28;20454;-91
2021/11/03 12:25:33;;;;;;;21.40;17.17;;;10.40;99.90;;;;;;5078657;28;20119;-91
2021/11/03 12:29:01;;;;;;;23.60;18.00;;;10.50;99.90;;;;;;5092497;28;20495;-92
2021/11/03 12:31:58;;;;;;;20.77;17.38;;;10.50;99.90;;;;;;5059661;28;20046;-92
2021/11/03 12:34:45;;;;;;;20.52;16.40;;;10.40;99.90;;;;;;5076072;28;20504;-91
2021/11/03 12:37:25;;;;;;;20.30;16.92;;;10.50;99.90;;;;;;5096016;28;20051;-91
2021/11/03 12:39:57;;;;;;;19.38;15.80;;;10.50;99.90;;;;;;5061264;28;20095;-92
2021/11/03 12:42:28;;;;;;;22.42;17.15;;;10.50;99.90;;;;;;5078792;28;20043;-92
2021/11/03 12:45:20;;;;;;;21.13;16.50;;;10.50;99.90;;;;;;5090699;28;20040;-93
2021/11/03 12:48:02;;;;;;;20.00;15.65;;;10.50;99.90;;;;;;5080495;28;20518;-90
2021/11/03 12:50:40;;;;;;;23.48;18.75;;;10.50;99.90;;;;;;5080101;28;20032;-91
2021/11/03 12:53:34;;;;;;;24.33;17.35;;;10.60;99.90;;;;;;5084042;28;20036;-92
2021/11/03 12:56:24;;;;;;;23.45;18.42;;;10.60;99.90;;;;;;5067803;28;20504;-92
2021/11/03 12:59:05;;;;;;;22.98;18.85;;;10.50;99.90;;;;;;5080559;28;20032;-92
2021/11/03 13:02:14;;;;;;;;;;;;;;;;;;;;;
2021/11/03 13:04:57;;;;;;;19.65;15.45;;;10.50;99.90;;;;;;5090349;28;20060;-91
2021/11/03 13:07:38;;;;;;;20.85;17.23;;;10.50;99.90;;;;;;5080503;28;20027;-91
2021/11/03 13:10:17;;;;;;;20.55;16.30;;;10.50;99.90;;;;;;5073293;28;20142;-91
2021/11/03 13:13:13;;;;;;;21.05;16.83;;;10.40;99.90;;;;;;5052932;28;20044;-90
2021/11/03 13:16:02;;;;;;;22.42;18.25;;;10.40;99.90;;;;;;5075097;28;20044;-92
2021/11/03 13:18:51;;;;;;;22.42;17.75;;;10.40;99.90;;;;;;5066842;28;20036;-91
2021/11/03 13:21:40;;;;;;;21.65;17.05;;;10.40;99.90;;;;;;5056155;28;20033;-91
2021/11/03 13:24:33;;;;;;;23.08;17.05;;;10.30;99.90;;;;;;5058007;28;20032;-91
2021/11/03 13:27:12;;;;;;;26.27;19.13;;;10.40;99.90;;;;;;5049021;28;20032;-91
2021/11/03 13:29:57;;;;;;;20.95;16.27;;;10.40;99.90;;;;;;5003371;28;20300;-92
2021/11/03 13:32:54;;;;;;;21.55;16.88;;;10.40;99.90;;;;;;4920974;28;20121;-93
2021/11/03 13:35:24;;;;;;;20.50;15.82;;;10.40;99.90;;;;;;5012705;28;20028;-92
2021/11/03 13:38:03;;;;;;;24.05;17.85;;;10.30;99.90;;;;;;5069534;28;20090;-90
2021/11/03 13:40:36;;;;;;;24.45;18.50;;;10.30;99.90;;;;;;5052782;28;20036;-90
2021/11/03 13:43:13;;;;;;;25.10;18.85;;;10.30;99.90;;;;;;5051675;28;20114;-91
2021/11/03 13:45:48;;;;;;;28.67;22.02;;;10.20;99.90;;;;;;5041614;28;20127;-89
2021/11/03 13:48:44;;;;;;;31.08;21.58;;;10.20;99.90;;;;;;5053982;28;20045;-90
2021/11/03 13:51:16;;;;;;;29.10;22.35;;;10.10;99.90;;;;;;5069427;28;20032;-90